Time;durP1;ratioP1;P1;durP2;ratioP2;P2;SDS_P1;SDS_P2;PMS_P1;PMS_P2;Temp;Humidity;BMP_temperature;BMP_pressure;BME280_temperature;BME280_humidity;BME280_pressure;Samples;Min_cycle;Max_cycle;Signal;HPM_P1;HPM_P2
2021/01/06 00:01:40;;;;;;;10.02;8.25;;;;;;;19.47;40.51;99892.31;5048210;28;20421;-77
2021/01/06 00:04:05;;;;;;;10.10;8.07;;;;;;;19.47;40.63;99890.56;5054785;28;20120;-78
2021/01/06 00:06:31;;;;;;;11.00;8.48;;;;;;;19.47;40.47;99894.94;5055191;28;20041;-73
2021/01/06 00:08:58;;;;;;;9.95;8.13;;;;;;;19.47;40.59;99885.28;5045803;28;20029;-74
2021/01/06 00:11:37;;;;;;;9.68;7.35;;;;;;;19.48;40.34;99886.16;5043135;28;20485;-74
2021/01/06 00:14:11;;;;;;;9.57;7.68;;;;;;;19.48;40.90;99884.41;5054760;28;20116;-78
2021/01/06 00:16:36;;;;;;;10.85;8.32;;;;;;;19.50;40.50;99888.75;5054773;28;20025;-74
2021/01/06 00:19:02;;;;;;;10.35;8.55;;;;;;;19.48;40.67;99880.88;5054452;28;20025;-78
2021/01/06 00:21:28;;;;;;;11.40;8.38;;;;;;;19.50;40.50;99889.59;5054283;28;20032;-73
2021/01/06 00:23:53;;;;;;;10.20;8.02;;;;;;;19.51;40.38;99879.97;5070278;28;20037;-79
2021/01/06 00:26:19;;;;;;;10.10;8.30;;;;;;;19.49;40.82;99880.00;5054335;28;20037;-73
2021/01/06 00:28:44;;;;;;;9.15;7.05;;;;;;;19.50;40.46;99881.72;5052966;28;20044;-72
2021/01/06 00:31:10;;;;;;;10.15;7.60;;;;;;;19.51;40.59;99879.97;5054166;28;20414;-77
2021/01/06 00:33:36;;;;;;;10.27;7.80;;;;;;;19.48;40.61;99875.63;5054292;28;20040;-74
2021/01/06 00:36:06;;;;;;;10.02;8.32;;;;;;;19.50;40.47;99878.25;5054589;28;20086;-73
2021/01/06 00:38:32;;;;;;;9.05;7.57;;;;;;;19.48;40.58;99871.25;5054462;28;20033;-76
2021/01/06 00:40:58;;;;;;;10.75;7.78;;;;;;;19.49;40.44;99877.38;5054226;28;20041;-79
2021/01/06 00:43:24;;;;;;;10.90;7.53;;;;;;;19.49;40.56;99874.75;5053068;28;20037;-79
2021/01/06 00:45:50;;;;;;;9.77;7.78;;;;;;;19.49;40.60;99880.00;5053943;28;20071;-74
2021/01/06 00:48:15;;;;;;;10.02;7.60;;;;;;;19.48;40.59;99875.63;5053955;28;20041;-75
2021/01/06 00:50:42;;;;;;;11.52;8.05;;;;;;;19.47;40.48;99880.03;5053038;28;20061;-74
2021/01/06 00:53:13;;;;;;;10.45;7.00;;;;;;;19.48;40.58;99879.16;5039644;28;20445;-74
2021/01/06 00:55:38;;;;;;;9.57;7.30;;;;;;;19.48;40.40;99880.88;5034441;28;20490;-74
2021/01/06 00:58:04;;;;;;;9.10;7.03;;;;;;;19.48;40.68;99881.78;5032948;28;20032;-78
2021/01/06 01:00:30;;;;;;;9.68;7.78;;;;;;;19.48;40.40;99875.63;5033657;28;20092;-81
2021/01/06 01:02:57;;;;;;;9.40;6.43;;;;;;;19.49;40.30;99874.75;5033759;28;20044;-73
2021/01/06 01:05:24;;;;;;;8.32;6.65;;;;;;;19.48;40.38;99876.50;5033524;28;20025;-78
2021/01/06 01:07:50;;;;;;;7.28;6.30;;;;;;;19.50;40.56;99875.63;5033968;28;20123;-75
2021/01/06 01:10:36;;;;;;;6.85;5.82;;;;;;;19.48;40.50;99873.00;5032989;28;20072;-78
2021/01/06 01:13:17;;;;;;;9.20;7.05;;;;;;;19.48;40.61;99870.38;5053750;28;20116;-75
2021/01/06 01:15:46;;;;;;;9.45;6.80;;;;;;;19.47;40.54;99871.28;5053628;28;20401;-73
2021/01/06 01:18:18;;;;;;;8.90;6.60;;;;;;;19.47;40.38;99866.91;5053740;28;20033;-73
2021/01/06 01:20:54;;;;;;;7.85;6.20;;;;;;;19.47;40.48;99868.66;5054175;28;20040;-78
2021/01/06 01:23:21;;;;;;;8.07;6.13;;;;;;;19.48;40.72;99870.38;5054113;28;20037;-78
2021/01/06 01:25:47;;;;;;;8.25;6.00;;;;;;;19.48;40.41;99866.00;5049448;28;20046;-73
2021/01/06 01:28:18;;;;;;;7.43;5.70;;;;;;;19.47;40.44;99866.91;5032283;28;20120;-74
2021/01/06 01:30:43;;;;;;;7.20;6.38;;;;;;;19.48;40.70;99865.13;5033199;28;20108;-74
2021/01/06 01:33:09;;;;;;;7.00;5.90;;;;;;;19.48;40.54;99870.38;5033137;28;20164;-74
2021/01/06 01:35:34;;;;;;;7.90;5.75;;;;;;;19.47;40.38;99864.28;5033667;28;20072;-78
2021/01/06 01:38:02;;;;;;;6.70;5.43;;;;;;;19.46;40.62;99859.91;5033482;28;20531;-78
2021/01/06 01:40:34;;;;;;;7.45;6.13;;;;;;;19.47;40.60;99868.66;5033199;28;20029;-78
2021/01/06 01:43:12;;;;;;;7.55;6.00;;;;;;;19.47;40.53;99861.66;5032909;28;20057;-73
2021/01/06 01:45:46;;;;;;;7.20;5.85;;;;;;;19.46;40.52;99867.81;5033305;28;20041;-79
2021/01/06 01:48:20;;;;;;;7.65;5.90;;;;;;;19.48;40.59;99868.63;5033026;28;20509;-79
2021/01/06 01:50:46;;;;;;;7.90;6.07;;;;;;;19.47;40.53;99864.28;5033160;28;20506;-78
2021/01/06 01:53:19;;;;;;;7.38;5.70;;;;;;;19.48;40.37;99867.75;5031590;28;20049;-78
2021/01/06 01:55:46;;;;;;;7.57;5.20;;;;;;;19.48;40.45;99866.00;5033195;28;20064;-73
2021/01/06 01:58:21;;;;;;;6.70;5.28;;;;;;;19.47;40.57;99866.03;5032671;28;20052;-78
2021/01/06 02:00:48;;;;;;;7.00;5.28;;;;;;;19.48;40.54;99866.00;5037623;28;20048;-74
2021/01/06 02:03:28;;;;;;;7.82;5.47;;;;;;;19.46;40.65;99870.44;5052461;28;20041;-79
2021/01/06 02:06:06;;;;;;;6.50;5.18;;;;;;;19.47;40.61;99871.28;5052919;28;20111;-76
2021/01/06 02:08:40;;;;;;;7.22;5.50;;;;;;;19.48;40.41;99868.63;5052538;28;20033;-74
2021/01/06 02:11:16;;;;;;;7.38;5.50;;;;;;;19.46;40.53;99873.06;5048028;28;20436;-74
2021/01/06 02:13:48;;;;;;;7.63;5.70;;;;;;;19.46;40.65;99867.81;5032567;28;20065;-78
2021/01/06 02:16:31;;;;;;;5.90;4.45;;;;;;;19.46;40.60;99873.06;5032088;28;20025;-74
2021/01/06 02:18:56;;;;;;;5.80;4.95;;;;;;;19.46;40.49;99867.81;5030920;28;20100;-75
2021/01/06 02:21:25;;;;;;;6.78;4.68;;;;;;;19.46;40.72;99877.47;5032199;28;20120;-73
2021/01/06 02:23:52;;;;;;;6.28;5.00;;;;;;;19.46;40.65;99872.22;5032601;28;20060;-74
2021/01/06 02:26:19;;;;;;;5.95;4.68;;;;;;;19.46;40.53;99867.81;5060160;28;20039;-73
2021/01/06 02:28:46;;;;;;;6.47;4.90;;;;;;;19.48;40.60;99870.38;5051002;28;20486;-73
2021/01/06 02:31:12;;;;;;;6.90;4.68;;;;;;;19.49;40.46;99866.84;5052192;28;20090;-78
2021/01/06 02:33:39;;;;;;;6.35;4.85;;;;;;;19.50;40.41;99867.72;5052161;28;20121;-81
2021/01/06 02:36:09;;;;;;;7.07;4.95;;;;;;;19.48;40.32;99868.63;5052158;28;20040;-73
2021/01/06 02:38:34;;;;;;;7.45;5.07;;;;;;;19.48;40.39;99870.38;5052187;28;20055;-79
2021/01/06 02:41:01;;;;;;;6.00;4.93;;;;;;;19.48;40.54;99871.25;5050800;28;20045;-73
2021/01/06 02:43:27;;;;;;;5.10;4.45;;;;;;;19.48;40.55;99873.00;5052128;28;20041;-73
2021/01/06 02:45:54;;;;;;;8.75;5.28;;;;;;;19.48;40.45;99868.63;5050969;28;20033;-75
2021/01/06 02:48:20;;;;;;;6.47;4.88;;;;;;;19.47;40.67;99872.16;5051810;28;20055;-75
2021/01/06 02:50:50;;;;;;;6.53;4.65;;;;;;;19.48;40.40;99866.00;5052086;28;20887;-79
2021/01/06 02:53:28;;;;;;;7.15;4.82;;;;;;;19.47;40.61;99864.28;5051604;28;20041;-75
2021/01/06 02:55:53;;;;;;;7.32;4.50;;;;;;;19.48;40.45;99862.50;5050407;28;20041;-75
2021/01/06 02:58:22;;;;;;;6.72;4.88;;;;;;;19.47;40.53;99866.91;5052227;28;20033;-75
2021/01/06 03:00:50;;;;;;;6.57;5.00;;;;;;;19.47;40.49;99858.13;5045348;28;20033;-74
2021/01/06 03:03:16;;;;;;;6.63;4.70;;;;;;;19.47;40.48;99860.75;5031864;28;20037;-76
2021/01/06 03:05:48;;;;;;;6.60;4.45;;;;;;;19.46;40.52;99853.81;5031956;28;20394;-73
2021/01/06 03:08:16;;;;;;;6.43;4.95;;;;;;;19.48;40.50;99859.88;5035043;28;20023;-73
2021/01/06 03:10:42;;;;;;;7.35;5.00;;;;;;;19.46;40.62;99862.53;5051260;28;20032;-77
2021/01/06 03:13:08;;;;;;;7.32;4.95;;;;;;;19.47;40.41;99856.38;5051537;28;20111;-74
2021/01/06 03:15:35;;;;;;;5.07;4.38;;;;;;;19.48;40.70;99860.75;5051930;28;20028;-75
2021/01/06 03:18:01;;;;;;;6.55;4.50;;;;;;;19.49;40.63;99858.97;5051399;28;20106;-79
2021/01/06 03:20:40;;;;;;;6.47;4.85;;;;;;;19.48;40.52;99857.25;5051550;28;20055;-77
2021/01/06 03:23:13;;;;;;;7.95;4.95;;;;;;;19.48;40.66;99858.13;5031438;28;20498;-73
2021/01/06 03:25:40;;;;;;;6.38;4.43;;;;;;;19.48;40.57;99858.13;5038253;28;20485;-77
2021/01/06 03:28:05;;;;;;;7.03;5.30;;;;;;;19.46;40.48;99854.66;5054666;28;20047;-73
2021/01/06 03:30:34;;;;;;;6.07;4.57;;;;;;;19.48;40.48;99854.59;5058032;28;20413;-74
2021/01/06 03:33:13;;;;;;;6.80;5.38;;;;;;;19.47;40.68;99851.13;5057740;28;20056;-74
2021/01/06 03:35:44;;;;;;;6.05;4.63;;;;;;;19.46;40.72;99846.78;5043671;28;20037;-76
2021/01/06 03:38:26;;;;;;;5.72;4.38;;;;;;;19.48;40.51;99844.97;5038678;28;20555;-74
2021/01/06 03:40:54;;;;;;;6.55;4.75;;;;;;;19.48;40.47;99847.59;5038148;28;20517;-77
2021/01/06 03:43:21;;;;;;;6.82;4.72;;;;;;;19.50;40.56;99844.09;5038420;28;20116;-74
2021/01/06 03:45:54;;;;;;;6.63;4.82;;;;;;;19.50;40.08;99850.19;5038266;28;20518;-73
2021/01/06 03:48:30;;;;;;;5.88;4.38;;;;;;;19.46;40.59;99845.94;5037598;28;20486;-74
2021/01/06 03:51:09;;;;;;;7.47;5.18;;;;;;;19.47;40.37;99845.88;5038073;28;20036;-79
2021/01/06 03:53:43;;;;;;;7.07;4.70;;;;;;;19.47;40.55;99843.25;5037972;28;20391;-74
2021/01/06 03:56:15;;;;;;;6.85;4.90;;;;;;;19.46;40.54;99838.91;5036611;28;20038;-75
2021/01/06 03:58:59;;;;;;;6.50;4.70;;;;;;;19.48;40.53;99836.22;5036812;28;20099;-75
2021/01/06 04:01:30;;;;;;;7.28;4.60;;;;;;;19.48;40.67;99839.72;5049097;28;20501;-78
2021/01/06 04:04:15;;;;;;;5.57;4.25;;;;;;;19.45;40.48;99837.16;5056491;28;20059;-74
2021/01/06 04:06:44;;;;;;;6.57;4.40;;;;;;;19.46;40.72;99835.41;5057932;28;20080;-76
2021/01/06 04:09:18;;;;;;;5.05;4.45;;;;;;;19.47;40.53;99835.38;5046405;28;20036;-78
2021/01/06 04:11:53;;;;;;;5.78;4.35;;;;;;;19.46;40.52;99832.78;5047336;28;20036;-77
2021/01/06 04:14:18;;;;;;;6.22;4.53;;;;;;;19.46;40.62;99828.38;5056550;28;20033;-80
2021/01/06 04:16:44;;;;;;;5.18;3.97;;;;;;;19.47;40.67;99832.75;5057609;28;20091;-80
2021/01/06 04:19:09;;;;;;;5.43;4.00;;;;;;;19.50;40.49;99825.69;5056267;28;20040;-74
2021/01/06 04:21:35;;;;;;;5.18;4.03;;;;;;;19.48;40.60;99831.84;5057405;28;20037;-73
2021/01/06 04:24:00;;;;;;;5.40;4.25;;;;;;;19.47;40.83;99832.75;5057594;28;20070;-73
2021/01/06 04:26:27;;;;;;;5.13;4.22;;;;;;;19.47;40.55;99826.59;5042527;28;20060;-75
2021/01/06 04:28:52;;;;;;;5.93;4.30;;;;;;;19.48;40.64;99828.34;5038480;28;20079;-73
2021/01/06 04:31:19;;;;;;;5.30;3.97;;;;;;;19.47;40.70;99819.59;5037897;28;20077;-73
2021/01/06 04:33:48;;;;;;;4.32;3.45;;;;;;;19.47;40.54;99826.59;5037242;28;20037;-73
2021/01/06 04:36:33;;;;;;;4.63;3.85;;;;;;;19.46;40.51;99820.50;5037808;28;20033;-77
2021/01/06 04:39:02;;;;;;;4.63;3.67;;;;;;;19.48;40.60;99820.44;5035704;28;20045;-73
2021/01/06 04:41:41;;;;;;;4.80;3.85;;;;;;;19.49;40.37;99816.91;5034377;28;20033;-75
2021/01/06 04:44:28;;;;;;;5.05;3.33;;;;;;;19.48;40.53;99812.56;5034670;28;20060;-73
2021/01/06 04:47:08;;;;;;;4.05;3.53;;;;;;;19.48;40.51;99816.06;5034185;28;20037;-75
2021/01/06 04:50:12;;;;;;;4.85;3.70;;;;;;;19.46;40.51;99820.50;5034283;28;20042;-74
2021/01/06 04:52:51;;;;;;;5.07;4.10;;;;;;;19.46;40.74;99817.88;5033029;28;20073;-80
2021/01/06 04:55:34;;;;;;;5.35;3.72;;;;;;;19.47;40.70;99806.47;5033884;28;20113;-73
2021/01/06 04:58:21;;;;;;;4.38;3.17;;;;;;;19.47;40.51;99818.72;5032661;28;20490;-75
2021/01/06 05:01:04;;;;;;;4.47;3.50;;;;;;;19.46;40.59;99809.13;5039970;28;20029;-75
2021/01/06 05:03:49;;;;;;;5.50;3.40;;;;;;;19.47;40.46;99806.47;5052226;28;20124;-74
2021/01/06 05:06:40;;;;;;;4.05;3.35;;;;;;;19.46;40.46;99806.50;5053533;28;20033;-75
2021/01/06 05:09:15;;;;;;;4.15;3.15;;;;;;;19.45;40.62;99805.63;5043419;28;20052;-76
2021/01/06 05:11:55;;;;;;;5.22;3.45;;;;;;;19.45;40.78;99810.88;5044355;28;20045;-74
2021/01/06 05:14:29;;;;;;;4.13;3.15;;;;;;;19.47;40.49;99810.84;5053803;28;20037;-74
2021/01/06 05:16:56;;;;;;;4.38;3.80;;;;;;;19.46;40.59;99804.72;5053418;28;20562;-75
2021/01/06 05:19:29;;;;;;;4.03;3.00;;;;;;;19.47;40.65;99805.56;5053422;28;20497;-75
2021/01/06 05:21:54;;;;;;;6.10;3.70;;;;;;;19.47;40.35;99805.56;5053131;28;20508;-79
2021/01/06 05:24:26;;;;;;;4.68;3.63;;;;;;;19.48;40.52;99802.94;5036113;28;20057;-75
2021/01/06 05:27:06;;;;;;;3.58;2.97;;;;;;;19.47;40.46;99808.22;5050594;28;20451;-75
2021/01/06 05:29:32;;;;;;;4.55;3.38;;;;;;;19.48;40.65;99812.56;5053582;28;20518;-74
2021/01/06 05:31:58;;;;;;;5.40;3.88;;;;;;;19.48;40.60;99812.56;5052043;28;20065;-74
2021/01/06 05:34:26;;;;;;;4.57;3.42;;;;;;;19.47;40.68;99811.72;5053338;28;20045;-73
2021/01/06 05:36:52;;;;;;;5.60;3.70;;;;;;;19.48;40.81;99823.97;5053041;28;20393;-75
2021/01/06 05:39:24;;;;;;;3.95;3.00;;;;;;;19.48;40.67;99823.97;5053282;28;20033;-78
2021/01/06 05:41:54;;;;;;;3.97;3.00;;;;;;;19.47;40.64;99827.47;5051929;28;20059;-73
2021/01/06 05:44:20;;;;;;;4.72;3.22;;;;;;;19.47;40.58;99822.22;5053312;28;20044;-73
2021/01/06 05:46:47;;;;;;;3.80;3.00;;;;;;;19.50;40.56;99825.69;5053033;28;20041;-73
2021/01/06 05:49:26;;;;;;;3.78;3.05;;;;;;;19.48;40.39;99809.94;5052872;28;20067;-80
2021/01/06 05:51:54;;;;;;;4.22;2.65;;;;;;;19.49;40.44;99824.81;5050295;28;20036;-75
2021/01/06 05:54:34;;;;;;;4.10;3.03;;;;;;;19.47;40.55;99818.72;5051785;28;20064;-73
2021/01/06 05:57:10;;;;;;;4.20;3.00;;;;;;;19.47;40.65;99816.09;5052657;28;20069;-77
2021/01/06 05:59:56;;;;;;;3.97;3.00;;;;;;;19.46;40.61;99820.50;5053241;28;20110;-74
2021/01/06 06:02:59;;;;;;;5.50;3.25;;;;;;;19.48;40.66;99807.31;5052611;28;20120;-74
2021/01/06 06:05:40;;;;;;;4.47;3.17;;;;;;;19.50;40.58;99804.66;5052717;28;20501;-79
2021/01/06 06:08:08;;;;;;;3.60;2.85;;;;;;;19.50;40.69;99804.66;5050438;28;20033;-75
2021/01/06 06:10:56;;;;;;;3.58;3.00;;;;;;;19.48;40.60;99810.81;5032763;28;20108;-73
2021/01/06 06:13:31;;;;;;;3.75;2.67;;;;;;;19.46;40.56;99809.13;5031471;28;20048;-75
2021/01/06 06:16:38;;;;;;;4.20;2.97;;;;;;;19.45;40.54;99818.78;5032875;28;20042;-73
2021/01/06 06:19:31;;;;;;;4.05;2.58;;;;;;;19.43;40.71;99824.97;5047524;28;20044;-74
2021/01/06 06:22:16;;;;;;;3.50;2.47;;;;;;;19.43;40.69;99824.97;5043923;28;20045;-74
2021/01/06 06:24:54;;;;;;;3.75;2.55;;;;;;;19.43;40.82;99825.81;5052581;28;20306;-74
2021/01/06 06:27:36;;;;;;;3.90;2.85;;;;;;;19.44;40.52;99832.81;5052345;28;20040;-80
2021/01/06 06:30:11;;;;;;;3.80;2.75;;;;;;;19.44;40.63;99824.94;5052314;28;20033;-76
2021/01/06 06:32:41;;;;;;;3.45;2.60;;;;;;;19.46;40.45;99824.91;5052191;28;20824;-75
2021/01/06 06:35:38;;;;;;;4.95;2.65;;;;;;;19.45;40.79;99831.91;5051758;28;20041;-74
2021/01/06 06:38:06;;;;;;;4.28;2.60;;;;;;;19.45;40.73;99831.91;5052160;28;20111;-73
2021/01/06 06:41:03;;;;;;;3.38;1.98;;;;;;;19.47;40.59;99835.38;5051577;28;20037;-73
2021/01/06 06:43:42;;;;;;;3.42;2.55;;;;;;;19.46;40.65;99831.00;5030958;28;20071;-74
2021/01/06 06:46:24;;;;;;;2.67;2.20;;;;;;;19.46;40.62;99828.38;5030702;28;20071;-73
2021/01/06 06:49:10;;;;;;;3.33;2.35;;;;;;;19.48;40.54;99836.22;5031485;28;20514;-73
2021/01/06 06:51:44;;;;;;;3.35;2.50;;;;;;;19.46;40.71;99838.91;5031912;28;20036;-74
2021/01/06 06:54:13;;;;;;;3.55;2.55;;;;;;;19.46;40.59;99833.63;5030833;28;20094;-76
2021/01/06 06:56:38;;;;;;;2.97;2.25;;;;;;;19.47;40.74;99838.00;5031780;28;20132;-74
2021/01/06 06:59:09;;;;;;;2.58;2.08;;;;;;;19.47;40.79;99839.75;5031861;28;20485;-79
2021/01/06 07:01:45;;;;;;;3.42;2.78;;;;;;;19.45;40.61;99839.78;5032163;28;20128;-75
2021/01/06 07:04:19;;;;;;;3.58;2.40;;;;;;;19.45;40.67;99838.94;5031388;28;20506;-74
2021/01/06 07:06:57;;;;;;;2.72;2.20;;;;;;;19.46;40.74;99841.53;5031759;28;20041;-74
2021/01/06 07:09:29;;;;;;;3.28;2.38;;;;;;;19.46;40.74;99845.94;5043122;28;20136;-75
2021/01/06 07:12:01;;;;;;;3.45;1.88;;;;;;;19.44;40.60;99843.31;5051560;28;20108;-76
2021/01/06 07:14:30;;;;;;;3.45;2.42;;;;;;;19.46;40.78;99843.31;5051965;28;20036;-74
2021/01/06 07:17:03;;;;;;;2.67;2.17;;;;;;;19.48;40.65;99851.97;5049312;28;20454;-78
2021/01/06 07:19:34;;;;;;;2.72;2.15;;;;;;;19.51;40.70;99851.91;5048705;28;20033;-76
2021/01/06 07:22:16;;;;;;;5.03;2.80;;;;;;;19.51;40.82;99845.81;5040397;28;20044;-76
2021/01/06 07:24:45;;;;;;;5.35;2.65;;;;;;;19.51;40.80;99854.53;5048819;28;20040;-73
2021/01/06 07:27:10;;;;;;;5.32;2.67;;;;;;;19.53;40.82;99857.16;5047814;28;20029;-74
2021/01/06 07:30:03;;;;;;;8.00;2.22;;;;;;;19.57;40.95;99856.16;5030939;28;20049;-77
2021/01/06 07:32:36;;;;;;;6.78;2.85;;;;;;;19.56;41.01;99851.81;5029090;28;20054;-77
2021/01/06 07:35:10;;;;;;;5.10;3.28;;;;;;;19.56;40.88;99857.94;5031583;28;20033;-81
2021/01/06 07:37:38;;;;;;;7.03;2.65;;;;;;;19.62;40.94;99867.44;5031811;28;20044;-80
2021/01/06 07:40:25;;;;;;;8.43;2.88;;;;;;;19.62;41.09;99868.28;5036443;28;20108;-78
2021/01/06 07:42:52;;;;;;;10.30;2.72;;;;;;;19.63;41.15;99874.41;5051334;28;20037;-80
2021/01/06 07:45:20;;;;;;;4.38;3.00;;;;;;;19.66;41.04;99876.97;5051139;28;20029;-80
2021/01/06 07:48:15;;;;;;;9.25;3.03;;;;;;;19.65;40.96;99877.88;5050932;28;20045;-78
2021/01/06 07:50:47;;;;;;;6.65;3.05;;;;;;;19.63;41.26;99871.78;5035974;28;20044;-80
2021/01/06 07:53:16;;;;;;;7.72;2.70;;;;;;;19.70;41.24;99883.88;5045618;28;20116;-79
2021/01/06 07:55:57;;;;;;;11.38;3.13;;;;;;;19.70;41.26;99875.97;5029675;28;20518;-79
2021/01/06 07:58:34;;;;;;;10.80;8.05;;;;;;;19.73;41.30;99877.69;5032380;28;20044;-80
2021/01/06 08:01:31;;;;;;;10.13;6.05;;;;;;;19.72;41.24;99878.59;5042344;28;20045;-79
2021/01/06 08:04:01;;;;;;;15.18;6.55;;;;;;;19.70;41.18;99878.59;5030902;28;20049;-78
2021/01/06 08:06:54;;;;;;;9.48;6.22;;;;;;;19.67;41.31;99885.72;5029969;28;20041;-77
2021/01/06 08:09:36;;;;;;;11.02;5.70;;;;;;;19.69;41.30;99882.16;5040456;28;20041;-76
2021/01/06 08:12:25;;;;;;;7.82;5.13;;;;;;;19.71;41.34;99885.59;5035481;28;20057;-76
2021/01/06 08:15:09;;;;;;;7.65;5.20;;;;;;;19.67;41.14;99886.59;5026790;28;20049;-78
2021/01/06 08:17:51;;;;;;;11.27;5.45;;;;;;;19.65;41.16;99879.63;5032833;28;20307;-73
2021/01/06 08:20:25;;;;;;;7.15;4.18;;;;;;;19.63;41.37;99879.69;5035874;28;20118;-75
2021/01/06 08:23:03;;;;;;;7.47;4.40;;;;;;;19.63;41.32;99879.69;5052812;28;20762;-79
2021/01/06 08:25:33;;;;;;;8.85;5.45;;;;;;;19.64;41.44;99886.66;5047344;28;20033;-75
2021/01/06 08:27:58;;;;;;;8.23;5.18;;;;;;;19.63;41.33;99893.66;5034638;28;20030;-76
2021/01/06 08:30:29;;;;;;;11.95;4.55;;;;;;;19.65;41.34;99892.78;5033999;28;20541;-77
2021/01/06 08:33:07;;;;;;;7.10;4.40;;;;;;;19.63;41.43;99895.44;5034266;28;20147;-75
2021/01/06 08:35:36;;;;;;;7.97;4.63;;;;;;;19.63;41.11;99903.34;5034546;28;20041;-73
2021/01/06 08:38:02;;;;;;;8.02;4.55;;;;;;;19.66;41.21;99900.63;5033252;28;20072;-72
2021/01/06 08:40:30;;;;;;;6.63;4.43;;;;;;;19.66;41.48;99905.00;5032564;28;20041;-72
2021/01/06 08:42:56;;;;;;;8.45;4.25;;;;;;;19.67;41.22;99901.50;5049887;28;20041;-75
2021/01/06 08:45:29;;;;;;;9.05;4.32;;;;;;;19.69;41.13;99902.31;5052345;28;20044;-73
2021/01/06 08:47:54;;;;;;;7.10;4.28;;;;;;;19.64;41.32;99902.44;5060739;28;20033;-74
2021/01/06 08:50:20;;;;;;;6.93;4.05;;;;;;;19.64;41.30;99905.06;5034445;28;20068;-72
2021/01/06 08:52:55;;;;;;;7.63;3.88;;;;;;;19.63;41.17;99906.81;5034467;28;20037;-73
2021/01/06 08:55:28;;;;;;;8.93;4.78;;;;;;;19.64;41.40;99915.56;5054051;28;20035;-78
2021/01/06 08:58:01;;;;;;;11.43;4.25;;;;;;;19.66;41.35;99905.00;5053649;28;20063;-73
2021/01/06 09:00:39;;;;;;;10.18;3.88;;;;;;;19.65;41.18;99914.69;5053976;28;20568;-76
2021/01/06 09:03:18;;;;;;;6.00;3.47;;;;;;;19.65;41.08;99916.44;5052164;28;20040;-72
2021/01/06 09:05:55;;;;;;;8.13;3.67;;;;;;;19.68;41.14;99911.09;5054153;28;20037;-78
2021/01/06 09:08:27;;;;;;;8.10;3.70;;;;;;;19.65;41.27;99914.69;5048189;28;20591;-78
2021/01/06 09:11:07;;;;;;;7.25;3.50;;;;;;;19.67;41.15;99927.78;5033518;28;20030;-78
2021/01/06 09:13:39;;;;;;;7.68;3.65;;;;;;;19.65;41.16;99924.31;5032353;28;20037;-73
2021/01/06 09:16:13;;;;;;;10.50;3.97;;;;;;;19.65;41.09;99924.31;5034503;28;20056;-78
2021/01/06 09:18:59;;;;;;;7.15;3.95;;;;;;;19.65;41.25;99929.56;5052271;28;20482;-78
2021/01/06 09:21:29;;;;;;;8.10;3.33;;;;;;;19.65;41.30;99926.94;5052532;28;20409;-78
2021/01/06 09:24:03;;;;;;;6.53;3.33;;;;;;;19.66;41.15;99926.94;5053219;28;20374;-78
2021/01/06 09:26:29;;;;;;;7.90;3.55;;;;;;;19.65;41.23;99930.47;5052022;28;20044;-78
2021/01/06 09:29:03;;;;;;;8.43;3.80;;;;;;;19.66;41.30;99932.19;5053302;28;20107;-77
2021/01/06 09:31:30;;;;;;;7.18;3.55;;;;;;;19.67;41.32;99928.66;5052519;28;20044;-78
2021/01/06 09:33:57;;;;;;;8.95;4.00;;;;;;;19.65;41.38;99935.72;5052047;28;20037;-76
2021/01/06 09:36:23;;;;;;;8.68;3.63;;;;;;;19.67;41.41;99933.91;5053412;28;20029;-76
2021/01/06 09:38:51;;;;;;;9.50;3.63;;;;;;;19.66;41.16;99937.44;5053113;28;20036;-76
2021/01/06 09:41:43;;;;;;;6.00;3.40;;;;;;;19.68;41.13;99942.66;5053189;28;20104;-77
2021/01/06 09:44:09;;;;;;;5.32;3.15;;;;;;;19.68;41.36;99940.91;5065703;28;20047;-76
2021/01/06 09:46:56;;;;;;;7.13;3.50;;;;;;;19.67;41.10;99947.06;5053165;28;20108;-77
2021/01/06 09:49:47;;;;;;;7.78;3.15;;;;;;;19.65;41.24;99946.22;5033293;28;20513;-77
2021/01/06 09:52:35;;;;;;;5.78;3.05;;;;;;;19.67;41.08;99940.91;5032801;28;20401;-79
2021/01/06 09:55:02;;;;;;;4.95;2.60;;;;;;;19.67;41.35;99943.56;5052205;28;20612;-77
2021/01/06 09:57:29;;;;;;;4.07;3.30;;;;;;;19.68;41.09;99938.28;5052473;28;20032;-79
2021/01/06 10:00:07;;;;;;;5.07;3.15;;;;;;;19.68;41.16;99940.03;5053031;28;20029;-76
2021/01/06 10:02:36;;;;;;;6.40;3.40;;;;;;;19.67;41.02;99939.16;5043508;28;20087;-75
2021/01/06 10:05:23;;;;;;;3.55;2.58;;;;;;;19.70;41.19;99946.97;5052576;28;20060;-76
2021/01/06 10:07:56;;;;;;;4.35;2.90;;;;;;;19.71;40.99;99939.97;5052376;28;20045;-75
2021/01/06 10:10:33;;;;;;;4.10;2.83;;;;;;;19.68;41.23;99940.91;5032453;28;20041;-76
2021/01/06 10:13:17;;;;;;;5.25;3.20;;;;;;;19.68;41.21;99933.03;5032602;28;20032;-75
2021/01/06 10:16:04;;;;;;;5.55;2.90;;;;;;;19.65;41.14;99927.81;5032746;28;20041;-78
2021/01/06 10:18:34;;;;;;;4.60;3.15;;;;;;;19.68;40.95;99938.28;5032220;28;20076;-77
2021/01/06 10:21:23;;;;;;;5.82;3.38;;;;;;;19.69;41.02;99924.22;5033330;28;20171;-75
2021/01/06 10:24:13;;;;;;;4.60;3.08;;;;;;;19.68;41.13;99932.13;5031858;28;20029;-74
2021/01/06 10:27:00;;;;;;;7.85;3.00;;;;;;;19.67;40.94;99928.66;5040338;28;20044;-74
2021/01/06 10:29:30;;;;;;;4.88;3.40;;;;;;;19.68;41.03;99934.75;5034779;28;20067;-75
2021/01/06 10:32:30;;;;;;;4.70;3.42;;;;;;;19.67;40.91;99926.03;5037373;28;20489;-74
2021/01/06 10:35:26;;;;;;;4.13;2.92;;;;;;;19.67;41.03;99930.41;5053345;28;20033;-74
2021/01/06 10:38:21;;;;;;;4.18;2.88;;;;;;;19.68;40.95;99926.88;5051152;28;20037;-75
2021/01/06 10:40:50;;;;;;;4.25;3.22;;;;;;;19.67;41.09;99928.66;5051653;28;20033;-74
2021/01/06 10:43:30;;;;;;;5.78;3.28;;;;;;;19.68;40.93;99921.63;5051626;28;20048;-73
2021/01/06 10:45:56;;;;;;;3.50;2.90;;;;;;;19.66;40.78;99921.66;5049071;28;20052;-75
2021/01/06 10:48:52;;;;;;;5.57;3.60;;;;;;;19.67;40.91;99918.16;5051176;28;20389;-75
2021/01/06 10:51:57;;;;;;;7.18;4.20;;;;;;;19.68;40.48;99922.50;5038071;28;20049;-76
2021/01/06 10:54:32;;;;;;;5.20;4.25;;;;;;;19.68;40.80;99917.25;5041761;28;20033;-79
2021/01/06 10:56:59;;;;;;;6.63;4.30;;;;;;;19.77;40.69;99922.28;5031761;28;20088;-76
2021/01/06 10:59:24;;;;;;;6.78;4.55;;;;;;;19.80;40.83;99917.84;5048976;28;20044;-77
2021/01/06 11:02:05;;;;;;;6.85;4.43;;;;;;;19.83;40.77;99920.41;5042350;28;20036;-76
2021/01/06 11:04:52;;;;;;;9.70;5.13;;;;;;;19.94;41.23;99921.03;5051178;28;20051;-73
2021/01/06 11:07:59;;;;;;;6.97;4.43;;;;;;;20.04;41.62;99919.03;5038533;28;20077;-77
2021/01/06 11:10:34;;;;;;;11.98;5.40;;;;;;;20.10;41.49;99910.97;5011948;28;20041;-72
2021/01/06 11:13:08;;;;;;;7.82;4.70;;;;;;;20.16;41.97;99909.97;5046854;28;20048;-76
2021/01/06 11:15:52;;;;;;;6.85;4.80;;;;;;;20.12;41.98;99906.53;5051255;28;20041;-79
2021/01/06 11:18:41;;;;;;;8.87;4.43;;;;;;;20.06;42.65;99898.81;5051196;28;20413;-77
2021/01/06 11:21:17;;;;;;;6.90;4.35;;;;;;;20.08;42.34;99905.75;5047180;28;20298;-75
2021/01/06 11:23:47;;;;;;;11.55;5.10;;;;;;;20.06;42.93;99902.31;5047552;28;20053;-75
2021/01/06 11:26:32;;;;;;;6.97;4.75;;;;;;;20.05;42.83;99902.34;5031451;28;20045;-73
2021/01/06 11:29:17;;;;;;;13.85;4.78;;;;;;;20.05;42.84;99899.72;5046744;28;20040;-78
2021/01/06 11:32:15;;;;;;;8.38;5.10;;;;;;;20.04;42.71;99898.84;5046645;28;20044;-74
2021/01/06 11:34:43;;;;;;;11.23;5.35;;;;;;;20.09;42.57;99896.09;5048974;28;20171;-78
2021/01/06 11:37:29;;;;;;;12.65;5.97;;;;;;;20.06;42.94;99901.47;5051546;28;20155;-79
2021/01/06 11:39:55;;;;;;;10.88;5.57;;;;;;;20.12;43.30;99892.53;5049124;28;20067;-78
2021/01/06 11:42:41;;;;;;;11.65;6.18;;;;;;;20.11;43.27;99894.28;5037988;28;20112;-77
2021/01/06 11:45:16;;;;;;;16.60;6.15;;;;;;;20.12;42.87;99890.75;5035391;28;20030;-77
2021/01/06 11:47:57;;;;;;;28.05;12.35;;;;;;;20.08;42.71;99884.72;5049679;28;20045;-78
2021/01/06 11:50:40;;;;;;;31.10;10.60;;;;;;;20.02;42.66;99891.91;5048075;28;20108;-78
2021/01/06 11:53:16;;;;;;;23.88;9.23;;;;;;;20.00;42.48;99884.06;5034731;28;20521;-78
2021/01/06 11:56:15;;;;;;;23.80;8.38;;;;;;;20.00;42.04;99885.81;5035502;28;20072;-76
2021/01/06 11:58:56;;;;;;;26.13;8.23;;;;;;;19.99;41.84;99887.59;5035275;28;20037;-77
2021/01/06 12:01:49;;;;;;;17.15;7.53;;;;;;;19.97;41.74;99885.88;5037728;28;20037;-77
2021/01/06 12:04:30;;;;;;;22.15;7.22;;;;;;;19.97;41.75;99878.00;5041591;28;20412;-77
2021/01/06 12:06:56;;;;;;;26.25;7.25;;;;;;;19.95;41.78;99883.31;5053240;28;20509;-80